Time;durP1;ratioP1;P1;durP2;ratioP2;P2;SDS_P1;SDS_P2;PMS_P1;PMS_P2;Temp;Humidity;BMP_temperature;BMP_pressure;BME280_temperature;BME280_humidity;BME280_pressure;Samples;Min_cycle;Max_cycle;Signal;HPM_P1;HPM_P2
2021/06/14 00:01:25;;;;;;;5.80;4.27;;;19.00;1.00;;;;;;5011852;28;20931;-76
2021/06/14 00:03:52;;;;;;;7.73;4.37;;;19.00;99.90;;;;;;5016456;28;20212;-76
2021/06/14 00:06:19;;;;;;;7.37;4.03;;;19.00;1.00;;;;;;5000382;28;20299;-75
2021/06/14 00:08:46;;;;;;;8.73;4.80;;;18.90;99.90;;;;;;4995851;28;20193;-75
2021/06/14 00:11:13;;;;;;;7.33;4.07;;;18.90;99.90;;;;;;5010090;28;20227;-75
2021/06/14 00:13:40;;;;;;;10.03;5.10;;;18.80;1.00;;;;;;5012417;28;20193;-75
2021/06/14 00:16:08;;;;;;;6.67;4.63;;;18.90;99.90;;;;;;4984592;28;20588;-75
2021/06/14 00:18:35;;;;;;;8.00;4.60;;;18.90;1.00;;;;;;5029687;28;20205;-76
2021/06/14 00:21:09;;;;;;;7.20;4.93;;;18.80;50.80;;;;;;5012803;28;20283;-77
2021/06/14 00:23:36;;;;;;;7.47;4.90;;;18.70;99.90;;;;;;5019137;28;20286;-76
2021/06/14 00:26:10;;;;;;;7.87;4.83;;;18.70;99.90;;;;;;5012715;28;20684;-77
2021/06/14 00:28:39;;;;;;;6.43;4.60;;;18.60;1.00;;;;;;5007744;28;20616;-76
2021/06/14 00:31:08;;;;;;;10.37;5.00;;;18.60;1.00;;;;;;5010575;28;20271;-76
2021/06/14 00:33:37;;;;;;;7.63;4.80;;;18.60;1.00;;;;;;5012214;28;20228;-76
2021/06/14 00:36:05;;;;;;;7.17;4.70;;;18.50;1.00;;;;;;5010630;28;20278;-76
2021/06/14 00:38:33;;;;;;;6.47;4.77;;;18.40;1.00;;;;;;5016083;28;20243;-76
2021/06/14 00:41:00;;;;;;;8.53;4.67;;;18.50;1.00;;;;;;5013292;28;20572;-75
2021/06/14 00:43:27;;;;;;;10.17;5.60;;;18.40;1.00;;;;;;5012310;28;20570;-75
2021/06/14 00:45:54;;;;;;;7.53;5.13;;;18.40;1.00;;;;;;5029984;28;20676;-76
2021/06/14 00:48:21;;;;;;;9.57;5.40;;;18.30;1.00;;;;;;4993217;28;20194;-76
2021/06/14 00:50:55;;;;;;;10.00;5.40;;;18.30;1.00;;;;;;4993237;28;20271;-76
2021/06/14 00:53:23;;;;;;;8.67;5.17;;;18.40;1.00;;;;;;5009062;28;20255;-76
2021/06/14 00:55:51;;;;;;;9.50;5.60;;;18.30;1.00;;;;;;5003402;28;20205;-77
2021/06/14 00:58:19;;;;;;;9.57;6.07;;;18.30;1.00;;;;;;5025242;28;20204;-77
2021/06/14 01:00:46;;;;;;;10.07;5.33;;;18.20;1.00;;;;;;5001737;28;20232;-77
2021/06/14 01:03:13;;;;;;;8.60;5.20;;;18.20;1.00;;;;;;5013246;28;20207;-76
2021/06/14 01:05:47;;;;;;;9.67;5.90;;;18.20;1.00;;;;;;5011872;28;20282;-76
2021/06/14 01:08:14;;;;;;;8.50;5.17;;;18.20;1.00;;;;;;5020234;28;20587;-76
2021/06/14 01:10:43;;;;;;;8.17;5.80;;;18.20;99.90;;;;;;4997971;28;20928;-77
2021/06/14 01:13:17;;;;;;;8.27;5.50;;;18.20;99.90;;;;;;5012638;28;20224;-76
2021/06/14 01:16:20;;;;;;;9.97;5.53;;;18.10;1.00;;;;;;5025268;28;20219;-76
2021/06/14 01:18:58;;;;;;;11.30;6.00;;;18.10;1.00;;;;;;5010388;28;20693;-76
2021/06/14 01:21:28;;;;;;;8.17;5.57;;;18.10;1.00;;;;;;5033171;28;20200;-76
2021/06/14 01:24:13;;;;;;;9.53;5.47;;;18.10;1.00;;;;;;5013816;28;20201;-76
2021/06/14 01:27:00;;;;;;;9.30;5.60;;;18.00;98.50;;;;;;5032137;28;20258;-76
2021/06/14 01:29:29;;;;;;;10.03;4.83;;;18.00;99.90;;;;;;5029727;28;20197;-76
2021/06/14 01:31:58;;;;;;;8.77;4.97;;;18.00;84.80;;;;;;5011707;28;20324;-77
2021/06/14 01:34:28;;;;;;;7.83;5.63;;;18.00;99.00;;;;;;5015913;28;20227;-76
2021/06/14 01:37:00;;;;;;;9.47;4.90;;;17.90;99.90;;;;;;5023587;28;20236;-77
2021/06/14 01:39:31;;;;;;;10.60;5.80;;;17.90;99.90;;;;;;4994724;28;20575;-76
2021/06/14 01:41:59;;;;;;;9.37;5.70;;;17.90;51.70;;;;;;5007365;28;20231;-76
2021/06/14 01:44:27;;;;;;;7.17;6.00;;;17.80;99.90;;;;;;5011784;28;20605;-76
2021/06/14 01:46:57;;;;;;;10.20;6.47;;;17.80;99.90;;;;;;4995598;28;20352;-76
2021/06/14 01:49:26;;;;;;;8.30;5.90;;;17.80;99.90;;;;;;5004820;28;20283;-76
2021/06/14 01:51:53;;;;;;;11.03;5.93;;;17.80;1.00;;;;;;5012490;28;20538;-76
2021/06/14 01:54:20;;;;;;;8.20;6.13;;;17.70;1.00;;;;;;5007772;28;20869;-76
2021/06/14 01:56:51;;;;;;;10.77;6.00;;;17.80;1.00;;;;;;4993100;28;20296;-76
2021/06/14 01:59:23;;;;;;;7.97;5.33;;;17.70;1.00;;;;;;5010778;28;20295;-76
2021/06/14 02:01:52;;;;;;;11.23;6.63;;;17.60;1.00;;;;;;5029254;28;20306;-77
2021/06/14 02:04:19;;;;;;;8.63;5.93;;;17.60;1.00;;;;;;5002761;28;20212;-76
2021/06/14 02:06:48;;;;;;;12.07;5.90;;;17.70;1.00;;;;;;5007393;28;20217;-76
2021/06/14 02:09:17;;;;;;;13.60;6.67;;;17.60;1.00;;;;;;5012441;28;20793;-77
2021/06/14 02:11:48;;;;;;;9.03;6.60;;;17.50;1.00;;;;;;5009434;28;20213;-77
2021/06/14 02:14:21;;;;;;;12.07;6.37;;;17.60;1.00;;;;;;5009582;28;20666;-77
2021/06/14 02:16:50;;;;;;;10.10;6.67;;;17.50;1.00;;;;;;5006841;28;20626;-77
2021/06/14 02:19:17;;;;;;;9.97;5.97;;;17.40;1.00;;;;;;4996233;28;20209;-76
2021/06/14 02:21:46;;;;;;;9.07;6.03;;;17.30;1.00;;;;;;5005798;28;20211;-76
2021/06/14 02:24:14;;;;;;;8.50;5.37;;;17.40;1.00;;;;;;4996748;28;20213;-77
2021/06/14 02:26:43;;;;;;;7.47;5.93;;;17.30;1.00;;;;;;4995536;28;20267;-75
2021/06/14 02:29:10;;;;;;;6.67;5.30;;;17.40;1.00;;;;;;5011951;28;20201;-75
2021/06/14 02:31:37;;;;;;;8.47;5.80;;;17.40;1.00;;;;;;5026074;28;21940;-75
2021/06/14 02:34:06;;;;;;;8.20;6.00;;;17.40;1.00;;;;;;5009239;28;20309;-76
2021/06/14 02:36:34;;;;;;;10.00;6.00;;;17.20;1.00;;;;;;5009872;28;20921;-76
2021/06/14 02:39:11;;;;;;;10.77;6.37;;;17.20;1.00;;;;;;5025521;28;20236;-78
2021/06/14 02:41:39;;;;;;;13.07;6.60;;;17.30;1.00;;;;;;5025920;28;20872;-75
2021/06/14 02:44:06;;;;;;;10.53;6.83;;;17.30;1.00;;;;;;5028918;28;20228;-75
2021/06/14 02:46:40;;;;;;;9.40;7.23;;;17.30;1.00;;;;;;5013354;28;20251;-75
2021/06/14 02:49:08;;;;;;;12.60;6.47;;;17.30;1.00;;;;;;5028704;28;20235;-77
2021/06/14 02:51:36;;;;;;;10.20;6.53;;;17.30;1.00;;;;;;5006267;28;22120;-75
2021/06/14 02:54:08;;;;;;;11.03;6.67;;;17.30;1.00;;;;;;5028430;28;20206;-76
2021/06/14 02:56:36;;;;;;;9.77;6.77;;;17.20;1.00;;;;;;5029651;28;20228;-77
2021/06/14 02:59:07;;;;;;;12.50;7.00;;;17.20;1.00;;;;;;4995064;28;20644;-75
2021/06/14 03:01:34;;;;;;;11.10;6.67;;;17.10;1.00;;;;;;5012961;28;20851;-76
2021/06/14 03:04:03;;;;;;;10.47;6.23;;;17.20;1.00;;;;;;5009652;28;20816;-76
2021/06/14 03:06:30;;;;;;;10.30;6.63;;;17.20;1.00;;;;;;5008708;28;20579;-77
2021/06/14 03:08:59;;;;;;;11.67;6.83;;;17.10;1.00;;;;;;4990726;28;20208;-76
2021/06/14 03:11:28;;;;;;;13.90;6.47;;;17.20;1.00;;;;;;5022892;28;20207;-75
2021/06/14 03:13:57;;;;;;;11.77;7.57;;;17.10;1.00;;;;;;5006250;28;20266;-75
2021/06/14 03:16:26;;;;;;;10.40;7.23;;;17.10;1.00;;;;;;4999963;28;20203;-75
2021/06/14 03:18:54;;;;;;;13.67;7.60;;;17.00;1.00;;;;;;5030605;28;20284;-75
2021/06/14 03:21:22;;;;;;;9.23;6.33;;;17.00;1.00;;;;;;5007561;28;20232;-75
2021/06/14 03:23:51;;;;;;;10.63;6.60;;;17.00;1.00;;;;;;5009419;28;20304;-76
2021/06/14 03:26:21;;;;;;;11.07;7.03;;;17.00;1.00;;;;;;5008551;28;20258;-76
2021/06/14 03:28:49;;;;;;;9.07;6.83;;;17.00;1.00;;;;;;4993329;28;20286;-76
2021/06/14 03:31:17;;;;;;;10.93;6.70;;;16.90;1.00;;;;;;5009823;28;20290;-76
2021/06/14 03:33:49;;;;;;;10.73;6.93;;;16.90;1.00;;;;;;4992686;28;20309;-76
2021/06/14 03:36:18;;;;;;;11.33;7.07;;;16.90;1.00;;;;;;5018489;28;20219;-77
2021/06/14 03:38:47;;;;;;;11.27;7.90;;;17.00;1.00;;;;;;5025038;28;20258;-76
2021/06/14 03:41:15;;;;;;;11.87;7.43;;;16.90;1.00;;;;;;5013977;28;20208;-77
2021/06/14 03:43:42;;;;;;;11.27;6.63;;;17.00;1.00;;;;;;4991589;28;20730;-76
2021/06/14 03:46:09;;;;;;;9.47;7.03;;;16.90;1.00;;;;;;5008079;28;20365;-76
2021/06/14 03:48:36;;;;;;;11.37;6.70;;;16.90;1.00;;;;;;5014637;28;20224;-76
2021/06/14 03:51:04;;;;;;;11.23;7.40;;;16.90;1.00;;;;;;5011218;28;20642;-76
2021/06/14 03:53:31;;;;;;;11.63;7.00;;;16.90;1.00;;;;;;5004478;28;20216;-77
2021/06/14 03:56:04;;;;;;;9.33;6.90;;;16.90;1.00;;;;;;4994788;28;20252;-76
2021/06/14 03:58:31;;;;;;;8.73;7.33;;;17.00;1.00;;;;;;5011982;28;20743;-78
2021/06/14 04:00:59;;;;;;;12.30;7.47;;;16.90;1.00;;;;;;4988960;28;20189;-77
2021/06/14 04:03:28;;;;;;;12.60;7.67;;;16.90;1.00;;;;;;5010653;28;20201;-77
2021/06/14 04:05:56;;;;;;;15.03;8.17;;;16.90;1.00;;;;;;5015103;28;20197;-77
2021/06/14 04:08:23;;;;;;;12.23;7.13;;;16.90;1.00;;;;;;4996573;28;20196;-77
2021/06/14 04:10:50;;;;;;;12.07;7.37;;;16.90;1.00;;;;;;5008485;28;20209;-76
2021/06/14 04:13:18;;;;;;;10.50;7.20;;;16.80;1.00;;;;;;5008906;28;20220;-76
2021/06/14 04:15:44;;;;;;;14.17;8.43;;;16.90;1.00;;;;;;5008705;28;20237;-76
2021/06/14 04:18:11;;;;;;;8.67;7.00;;;16.90;1.00;;;;;;5015093;28;20245;-77
2021/06/14 04:20:38;;;;;;;11.73;7.93;;;16.90;1.00;;;;;;5013574;28;20253;-76
2021/06/14 04:23:06;;;;;;;12.33;7.87;;;16.90;1.00;;;;;;5015728;28;20273;-76
2021/06/14 04:25:33;;;;;;;11.83;7.37;;;16.90;1.00;;;;;;5012355;28;20652;-76
2021/06/14 04:28:02;;;;;;;9.97;7.40;;;17.00;1.00;;;;;;5017796;28;20697;-76
2021/06/14 04:30:29;;;;;;;13.67;8.37;;;17.00;1.00;;;;;;5013673;28;20231;-76
2021/06/14 04:32:56;;;;;;;14.43;8.47;;;17.00;1.00;;;;;;5009998;28;20625;-76
2021/06/14 04:35:23;;;;;;;13.53;7.63;;;17.00;1.00;;;;;;4997444;28;20186;-76
2021/06/14 04:37:50;;;;;;;12.30;8.03;;;17.10;1.00;;;;;;5000434;28;20226;-76
2021/06/14 04:40:17;;;;;;;12.60;8.00;;;17.10;1.00;;;;;;5001561;28;20216;-76
2021/06/14 04:42:44;;;;;;;14.60;8.27;;;17.10;1.00;;;;;;5008710;28;20241;-78
2021/06/14 04:45:13;;;;;;;11.53;7.77;;;17.20;1.00;;;;;;5000015;28;20261;-77
2021/06/14 04:47:40;;;;;;;13.57;8.10;;;17.20;1.00;;;;;;4999403;28;20251;-77
2021/06/14 04:50:08;;;;;;;13.57;8.53;;;17.20;1.00;;;;;;4997375;28;20307;-77
2021/06/14 04:52:34;;;;;;;12.30;8.90;;;17.30;1.00;;;;;;4999451;28;20196;-77
2021/06/14 04:55:01;;;;;;;12.57;8.70;;;17.30;1.00;;;;;;5010855;28;20223;-77
2021/06/14 04:57:28;;;;;;;11.73;8.53;;;17.50;1.00;;;;;;5009933;28;20273;-76
2021/06/14 04:59:56;;;;;;;14.33;8.90;;;17.50;99.90;;;;;;5001061;28;20207;-76
2021/06/14 05:02:22;;;;;;;13.07;9.03;;;17.60;99.90;;;;;;4998921;28;20239;-77
2021/06/14 05:04:51;;;;;;;12.47;8.60;;;17.70;99.90;;;;;;5003849;28;20291;-76
2021/06/14 05:07:17;;;;;;;14.03;8.57;;;17.90;99.90;;;;;;4995592;28;20302;-75
2021/06/14 05:09:44;;;;;;;14.90;9.60;;;18.00;1.00;;;;;;4997007;28;20937;-75
2021/06/14 05:12:11;;;;;;;14.07;9.20;;;18.10;99.90;;;;;;5013044;28;20203;-76
2021/06/14 05:14:44;;;;;;;12.73;8.90;;;18.10;99.90;;;;;;4980394;28;20201;-77
2021/06/14 05:17:11;;;;;;;14.80;7.80;;;18.10;1.00;;;;;;4999479;28;20200;-75
2021/06/14 05:19:37;;;;;;;12.60;8.50;;;18.30;99.90;;;;;;5022280;28;20698;-76
2021/06/14 05:22:05;;;;;;;15.17;8.43;;;18.40;1.00;;;;;;5010126;28;20212;-77
2021/06/14 05:24:32;;;;;;;15.00;8.93;;;18.50;99.90;;;;;;4981201;28;20205;-77
2021/06/14 05:26:59;;;;;;;14.57;8.67;;;18.70;1.00;;;;;;4997449;28;20294;-77
2021/06/14 05:29:26;;;;;;;13.23;8.77;;;18.80;1.00;;;;;;4992997;28;20202;-77
2021/06/14 05:31:53;;;;;;;11.73;7.97;;;18.90;1.00;;;;;;4992110;28;20596;-77
2021/06/14 05:34:20;;;;;;;17.73;9.00;;;19.10;1.00;;;;;;5028186;28;20658;-77
2021/06/14 05:36:47;;;;;;;13.13;8.63;;;19.20;1.00;;;;;;4996296;28;20208;-77
2021/06/14 05:39:14;;;;;;;13.67;8.70;;;19.20;1.00;;;;;;4994873;28;20269;-76
2021/06/14 05:41:41;;;;;;;12.80;8.30;;;19.20;99.90;;;;;;4978860;28;20297;-76
2021/06/14 05:44:09;;;;;;;17.17;9.60;;;19.20;1.00;;;;;;5005300;28;20224;-76
2021/06/14 05:46:36;;;;;;;11.73;8.63;;;19.20;1.00;;;;;;5008701;28;20214;-76
2021/06/14 05:49:03;;;;;;;13.50;8.60;;;19.30;99.90;;;;;;4992599;28;20266;-79
2021/06/14 05:51:35;;;;;;;11.87;8.63;;;19.40;39.10;;;;;;5011485;28;20567;-77
2021/06/14 05:54:02;;;;;;;14.27;8.07;;;19.40;1.00;;;;;;5006854;28;20195;-77
2021/06/14 05:56:29;;;;;;;12.03;8.70;;;19.60;99.90;;;;;;4990829;28;20612;-78
2021/06/14 05:58:55;;;;;;;15.47;8.57;;;19.60;1.00;;;;;;4985347;28;20200;-77
2021/06/14 06:01:22;;;;;;;11.27;8.17;;;19.60;99.90;;;;;;4999880;28;20230;-78
2021/06/14 06:03:50;;;;;;;13.10;7.63;;;19.60;1.00;;;;;;5009949;28;20214;-77
2021/06/14 06:06:16;;;;;;;14.60;8.37;;;19.50;1.00;;;;;;5014499;28;20202;-76
2021/06/14 06:08:43;;;;;;;12.93;8.20;;;19.50;99.90;;;;;;4999599;28;20211;-76
2021/06/14 06:11:10;;;;;;;11.37;7.70;;;19.60;1.00;;;;;;4998566;28;20250;-77
2021/06/14 06:13:37;;;;;;;11.73;8.10;;;19.40;1.00;;;;;;4986235;28;20195;-77
2021/06/14 06:16:05;;;;;;;12.83;8.20;;;19.60;1.00;;;;;;5013926;28;20241;-77
2021/06/14 06:18:31;;;;;;;12.43;9.27;;;19.40;1.00;;;;;;5006677;28;20474;-74
2021/06/14 06:20:58;;;;;;;13.03;8.50;;;19.40;1.00;;;;;;5006860;28;20603;-74
2021/06/14 06:23:26;;;;;;;12.07;8.30;;;20.00;99.90;;;;;;4989476;28;20745;-74
2021/06/14 06:25:53;;;;;;;9.90;7.70;;;20.10;99.90;;;;;;5004787;28;20297;-74
2021/06/14 06:28:20;;;;;;;11.10;7.30;;;20.30;1.00;;;;;;5004806;28;20303;-74
2021/06/14 06:30:47;;;;;;;10.30;6.87;;;20.90;1.00;;;;;;4999129;28;20664;-73
2021/06/14 06:33:14;;;;;;;18.00;8.33;;;21.10;99.90;;;;;;5012022;28;20260;-73
2021/06/14 06:35:41;;;;;;;10.23;6.93;;;22.00;27.80;;;;;;5024456;28;20238;-76
2021/06/14 06:38:08;;;;;;;16.93;8.10;;;22.00;1.00;;;;;;5029079;28;20317;-73
2021/06/14 06:40:35;;;;;;;9.13;7.07;;;22.10;1.00;;;;;;5007249;28;20237;-73
2021/06/14 06:43:06;;;;;;;9.33;7.27;;;22.40;1.00;;;;;;5009122;28;20204;-74
2021/06/14 06:45:33;;;;;;;9.87;6.63;;;22.70;1.00;;;;;;5026114;28;20201;-73
2021/06/14 06:48:01;;;;;;;15.73;7.87;;;23.40;99.90;;;;;;4991918;28;20596;-74
2021/06/14 06:50:29;;;;;;;8.97;6.53;;;23.20;1.00;;;;;;5011009;28;20254;-75
2021/06/14 06:52:56;;;;;;;11.23;6.90;;;23.50;51.50;;;;;;5020125;28;20615;-74
2021/06/14 06:55:23;;;;;;;9.77;6.73;;;23.60;1.00;;;;;;5006820;28;20197;-75
2021/06/14 06:57:50;;;;;;;10.30;6.00;;;23.80;1.00;;;;;;5006264;28;20228;-74
2021/06/14 07:00:20;;;;;;;11.63;6.47;;;24.40;1.00;;;;;;5028691;28;20200;-74
2021/06/14 07:02:47;;;;;;;11.33;6.47;;;24.50;1.00;;;;;;5013258;28;20211;-74
2021/06/14 07:05:32;;;;;;;11.53;6.17;;;23.90;1.00;;;;;;5014529;28;20291;-74
2021/06/14 07:07:59;;;;;;;7.60;5.33;;;23.40;1.00;;;;;;5032439;28;20261;-74
2021/06/14 07:10:26;;;;;;;6.50;5.43;;;24.10;1.00;;;;;;5022521;28;20197;-75
2021/06/14 07:13:16;;;;;;;10.87;6.37;;;24.90;1.00;;;;;;5028250;28;20205;-75
2021/06/14 07:15:44;;;;;;;12.53;6.83;;;25.30;99.90;;;;;;5026431;28;20200;-75
2021/06/14 07:18:11;;;;;;;7.23;5.87;;;25.00;99.90;;;;;;5010099;28;20265;-75
2021/06/14 07:20:40;;;;;;;8.17;5.53;;;24.60;99.90;;;;;;5027675;28;20287;-75
2021/06/14 07:23:07;;;;;;;7.87;6.53;;;25.70;99.90;;;;;;5009749;28;20680;-74
2021/06/14 07:25:33;;;;;;;10.67;5.80;;;25.50;99.90;;;;;;5010773;28;20193;-73
2021/06/14 07:28:00;;;;;;;9.77;6.10;;;25.20;99.90;;;;;;4998436;28;20210;-76
2021/06/14 07:30:31;;;;;;;10.43;5.63;;;24.90;99.90;;;;;;5030756;28;20284;-74
2021/06/14 07:32:59;;;;;;;12.43;7.27;;;25.00;99.90;;;;;;5022852;28;21315;-74
2021/06/14 07:35:29;;;;;;;9.23;5.63;;;25.10;99.90;;;;;;5012605;28;20425;-74
2021/06/14 07:37:56;;;;;;;9.97;5.77;;;25.60;99.90;;;;;;5014151;28;20654;-74
2021/06/14 07:40:23;;;;;;;10.07;5.60;;;25.90;99.90;;;;;;4997872;28;20214;-74
2021/06/14 07:42:50;;;;;;;8.87;5.23;;;25.80;99.90;;;;;;4994122;28;20244;-76
2021/06/14 07:45:21;;;;;;;8.40;5.10;;;26.40;99.90;;;;;;4977193;28;20234;-74
2021/06/14 07:47:48;;;;;;;9.20;5.50;;;27.00;99.90;;;;;;4994841;28;20217;-74
2021/06/14 07:50:15;;;;;;;9.37;4.67;;;27.70;99.90;;;;;;5011058;28;20822;-75
2021/06/14 07:52:42;;;;;;;10.97;5.80;;;27.30;99.90;;;;;;5011699;28;20221;-75
2021/06/14 07:55:11;;;;;;;7.87;5.70;;;27.30;99.90;;;;;;5007550;28;20602;-75
2021/06/14 07:57:39;;;;;;;9.03;5.50;;;27.50;99.90;;;;;;5026661;28;20612;-74
2021/06/14 08:00:08;;;;;;;9.47;5.87;;;26.60;99.90;;;;;;5028810;28;20346;-75
2021/06/14 08:02:36;;;;;;;8.00;4.70;;;26.40;99.90;;;;;;5011308;28;20235;-75
2021/06/14 08:05:06;;;;;;;6.20;4.43;;;26.10;99.90;;;;;;5015790;28;20332;-75
2021/06/14 08:07:34;;;;;;;9.87;4.63;;;27.00;99.90;;;;;;5011378;28;20265;-75
2021/06/14 08:10:05;;;;;;;8.80;4.40;;;26.90;99.90;;;;;;5009004;28;20199;-75
2021/06/14 08:12:33;;;;;;;8.50;4.50;;;27.20;99.90;;;;;;5013241;28;20234;-75
2021/06/14 08:15:00;;;;;;;8.53;4.03;;;27.60;99.90;;;;;;5014277;28;20528;-75
2021/06/14 08:17:29;;;;;;;8.93;4.53;;;28.10;99.90;;;;;;5011824;28;20289;-75
2021/06/14 08:25:06;;;;;;;8.63;4.23;;;28.50;98.90;;;;;;5029107;28;20207;-76
2021/06/14 08:27:41;;;;;;;9.23;4.20;;;28.10;99.90;;;;;;5015409;28;20239;-75
2021/06/14 08:30:14;;;;;;;6.57;4.13;;;27.40;97.40;;;;;;5027211;28;20240;-74
2021/06/14 08:32:42;;;;;;;5.90;3.30;;;27.50;99.90;;;;;;5024519;28;20625;-75
2021/06/14 08:35:13;;;;;;;5.20;3.03;;;27.80;99.90;;;;;;5025395;28;20288;-75
2021/06/14 08:37:45;;;;;;;5.65;3.58;;;27.80;99.90;;;;;;5027030;28;20317;-75
2021/06/14 08:40:13;;;;;;;4.97;2.78;;;28.00;98.40;;;;;;5011325;28;20224;-75
2021/06/14 08:42:41;;;;;;;3.47;3.03;;;28.20;99.90;;;;;;5011530;28;20196;-76
2021/06/14 08:45:09;;;;;;;6.00;3.17;;;28.10;97.70;;;;;;5012450;28;20593;-75
2021/06/14 08:47:39;;;;;;;9.13;3.00;;;28.00;90.30;;;;;;5032076;28;20240;-75
2021/06/14 08:50:10;;;;;;;6.85;3.05;;;27.80;91.00;;;;;;5014047;28;20262;-75
2021/06/14 08:52:38;;;;;;;5.65;2.80;;;27.30;93.40;;;;;;5031482;28;20200;-75
2021/06/14 08:55:07;;;;;;;4.78;2.97;;;27.40;93.60;;;;;;5011636;28;20988;-76
2021/06/14 08:57:35;;;;;;;4.50;2.63;;;28.00;95.40;;;;;;5013867;28;20209;-76
2021/06/14 09:00:04;;;;;;;7.20;3.38;;;28.60;94.40;;;;;;5029626;28;20201;-76
2021/06/14 09:02:31;;;;;;;4.63;2.80;;;28.60;96.70;;;;;;4996911;28;20359;-75
2021/06/14 09:04:58;;;;;;;4.75;3.33;;;28.50;93.80;;;;;;5028332;28;20201;-74
2021/06/14 09:07:25;;;;;;;5.85;3.05;;;27.90;93.60;;;;;;5011584;28;21086;-76
2021/06/14 09:09:52;;;;;;;7.35;3.20;;;27.70;87.90;;;;;;5010556;28;20518;-75
2021/06/14 09:12:19;;;;;;;4.50;2.63;;;28.20;87.20;;;;;;5010969;28;20196;-74
2021/06/14 09:14:46;;;;;;;6.20;2.90;;;27.70;80.20;;;;;;5029914;28;20204;-74
2021/06/14 09:17:15;;;;;;;7.23;3.03;;;27.90;92.00;;;;;;5027620;28;20239;-75
2021/06/14 09:20:00;;;;;;;5.03;2.93;;;28.20;89.70;;;;;;5029738;28;20196;-75
2021/06/14 09:22:27;;;;;;;4.43;3.40;;;27.70;81.30;;;;;;5013227;28;20283;-75
2021/06/14 09:25:00;;;;;;;5.03;2.90;;;28.00;89.70;;;;;;5019050;28;20200;-76
2021/06/14 09:27:39;;;;;;;6.17;3.93;;;28.50;93.00;;;;;;5029222;28;20305;-75
2021/06/14 09:30:29;;;;;;;7.15;3.35;;;28.50;89.20;;;;;;5025978;28;20204;-76
2021/06/14 09:33:08;;;;;;;4.32;3.38;;;28.80;84.40;;;;;;5007472;28;20237;-75
2021/06/14 09:35:41;;;;;;;7.15;3.90;;;28.40;86.60;;;;;;5031926;28;20243;-75
2021/06/14 09:38:13;;;;;;;7.18;2.97;;;28.20;86.20;;;;;;5009204;28;20201;-75
2021/06/14 09:40:47;;;;;;;5.28;3.53;;;28.40;90.40;;;;;;5031690;28;20286;-75
2021/06/14 09:43:41;;;;;;;6.63;3.57;;;28.50;90.30;;;;;;5028893;28;20199;-75
2021/06/14 09:46:17;;;;;;;6.83;2.90;;;29.20;92.60;;;;;;5024016;28;20294;-77
2021/06/14 09:48:44;;;;;;;5.05;3.00;;;28.30;90.20;;;;;;5028237;28;20746;-75
2021/06/14 09:51:11;;;;;;;4.20;2.85;;;28.00;87.50;;;;;;5011885;28;20284;-75
2021/06/14 09:53:43;;;;;;;4.28;2.53;;;27.70;87.00;;;;;;4996107;28;20275;-75
2021/06/14 09:56:17;;;;;;;9.50;3.70;;;28.30;95.00;;;;;;5027900;28;20346;-75
2021/06/14 09:58:47;;;;;;;8.18;3.60;;;28.30;99.90;;;;;;5029079;28;20200;-75
2021/06/14 10:01:24;;;;;;;4.05;2.85;;;28.30;87.20;;;;;;5029980;28;20220;-76
2021/06/14 10:03:51;;;;;;;4.10;2.90;;;28.00;90.90;;;;;;5030106;28;20668;-76
2021/06/14 10:06:32;;;;;;;3.53;2.80;;;28.10;90.90;;;;;;5009124;28;20200;-75
2021/06/14 10:08:59;;;;;;;7.50;3.42;;;28.10;96.60;;;;;;5024194;28;20295;-76
2021/06/14 10:11:38;;;;;;;8.60;2.80;;;28.50;95.90;;;;;;5012136;28;20266;-76
2021/06/14 10:14:15;;;;;;;6.22;3.33;;;28.20;86.20;;;;;;5025911;28;20287;-76
2021/06/14 10:16:43;;;;;;;6.68;3.15;;;28.20;95.80;;;;;;5031032;28;20203;-76
2021/06/14 10:19:12;;;;;;;5.80;3.10;;;28.30;97.60;;;;;;5018787;28;20283;-76
2021/06/14 10:21:43;;;;;;;5.25;2.75;;;28.60;98.00;;;;;;5015223;28;20629;-76
2021/06/14 10:24:17;;;;;;;4.47;2.80;;;28.60;93.40;;;;;;5004810;28;20244;-76
2021/06/14 10:26:47;;;;;;;6.75;3.33;;;28.80;93.10;;;;;;5015496;28;20196;-76
2021/06/14 10:29:15;;;;;;;9.45;3.67;;;29.10;93.40;;;;;;5006833;28;20248;-76
2021/06/14 10:31:45;;;;;;;5.32;2.80;;;28.60;88.50;;;;;;5000817;28;20325;-77
2021/06/14 10:34:14;;;;;;;5.97;2.70;;;29.00;90.20;;;;;;5016001;28;20707;-76
2021/06/14 10:36:48;;;;;;;4.30;2.92;;;28.70;88.80;;;;;;5009694;28;20224;-76
2021/06/14 10:39:15;;;;;;;3.58;3.17;;;28.90;84.10;;;;;;5023162;28;20235;-76
2021/06/14 10:41:44;;;;;;;3.97;2.85;;;29.10;89.20;;;;;;5007878;28;20201;-76
2021/06/14 10:44:11;;;;;;;8.48;3.08;;;28.70;81.40;;;;;;5027437;28;20271;-76
2021/06/14 10:46:44;;;;;;;4.28;2.63;;;29.30;90.50;;;;;;5012033;28;20252;-76
2021/06/14 10:49:13;;;;;;;5.93;2.78;;;30.00;91.00;;;;;;5008001;28;20227;-76
2021/06/14 10:51:42;;;;;;;4.63;2.90;;;30.00;83.90;;;;;;5029148;28;20541;-76
2021/06/14 10:54:11;;;;;;;6.63;3.30;;;29.50;70.50;;;;;;5006634;28;20204;-76
2021/06/14 10:56:39;;;;;;;8.93;3.25;;;29.20;70.30;;;;;;5025842;28;20197;-75
2021/06/14 10:59:09;;;;;;;5.47;2.75;;;28.90;71.80;;;;;;5015618;28;20232;-75
2021/06/14 11:01:41;;;;;;;6.07;3.33;;;29.20;71.70;;;;;;5023735;28;20568;-79
2021/06/14 11:04:09;;;;;;;4.00;2.92;;;29.80;71.30;;;;;;5019992;28;20322;-79
2021/06/14 11:06:48;;;;;;;3.60;1.98;;;29.50;69.40;;;;;;5017027;28;20196;-79
2021/06/14 11:09:15;;;;;;;3.38;2.15;;;29.20;57.90;;;;;;5016965;28;20278;-80
2021/06/14 11:11:52;;;;;;;4.13;2.90;;;29.30;59.80;;;;;;5015389;28;20204;-80
2021/06/14 11:14:37;;;;;;;6.72;2.80;;;29.50;57.50;;;;;;5033171;28;20268;-81
2021/06/14 11:17:19;;;;;;;4.80;2.63;;;29.50;56.40;;;;;;5034106;28;20207;-81
2021/06/14 11:19:48;;;;;;;6.93;3.05;;;29.40;53.60;;;;;;5033930;28;20204;-81
2021/06/14 11:22:17;;;;;;;7.60;2.70;;;29.60;56.00;;;;;;5012788;28;20281;-80
2021/06/14 11:24:46;;;;;;;5.15;2.75;;;29.70;57.30;;;;;;5015723;28;20197;-79
2021/06/14 11:27:15;;;;;;;5.82;3.70;;;30.00;59.50;;;;;;5029834;28;20312;-79
2021/06/14 11:29:49;;;;;;;4.85;2.92;;;30.10;56.10;;;;;;5010690;28;23528;-77
2021/06/14 11:32:20;;;;;;;5.45;2.72;;;29.90;46.90;;;;;;5029013;28;20864;-78
2021/06/14 11:34:57;;;;;;;4.00;2.67;;;30.10;54.30;;;;;;5031263;28;20227;-78
2021/06/14 11:37:42;;;;;;;5.23;2.80;;;30.40;52.10;;;;;;5033502;28;20656;-78
2021/06/14 11:40:12;;;;;;;5.30;2.67;;;29.80;48.50;;;;;;5032632;28;20262;-78
2021/06/14 11:43:09;;;;;;;4.60;2.87;;;30.00;45.90;;;;;;5006894;28;20200;-78
2021/06/14 11:45:42;;;;;;;5.43;2.90;;;29.70;48.30;;;;;;5032830;28;20278;-78
2021/06/14 11:48:30;;;;;;;4.00;3.15;;;29.80;48.50;;;;;;5033736;28;20228;-79
2021/06/14 11:51:18;;;;;;;3.80;2.60;;;29.90;46.60;;;;;;5033952;28;20205;-78
2021/06/14 11:53:55;;;;;;;5.33;3.47;;;30.20;54.60;;;;;;5034208;28;20201;-79
2021/06/14 11:56:25;;;;;;;4.45;2.60;;;30.40;56.40;;;;;;5017861;28;20898;-78
2021/06/14 11:58:53;;;;;;;3.70;2.57;;;30.10;48.00;;;;;;5014651;28;20582;-77
2021/06/14 12:01:28;;;;;;;4.10;2.70;;;30.20;45.10;;;;;;5018196;28;20278;-79
2021/06/14 12:03:56;;;;;;;3.28;2.63;;;31.80;50.70;;;;;;5022792;28;20215;-77
2021/06/14 12:06:24;;;;;;;6.47;2.83;;;32.30;49.10;;;;;;5032090;28;20269;-79
2021/06/14 12:08:51;;;;;;;5.25;3.08;;;31.80;42.10;;;;;;5016792;28;20220;-78
2021/06/14 12:11:24;;;;;;;5.57;2.80;;;31.10;40.70;;;;;;5014063;28;20368;-78
2021/06/14 12:13:51;;;;;;;4.40;3.13;;;31.50;74.90;;;;;;5015909;28;20232;-78
2021/06/14 12:16:24;;;;;;;7.13;3.13;;;31.30;40.90;;;;;;5029883;28;20266;-78
2021/06/14 12:19:00;;;;;;;4.97;3.38;;;31.50;70.90;;;;;;5014786;28;20284;-77
2021/06/14 12:21:27;;;;;;;3.33;2.45;;;31.10;35.80;;;;;;5004664;28;20209;-78
2021/06/14 12:23:54;;;;;;;6.32;2.90;;;31.10;39.80;;;;;;5008986;28;20198;-79
2021/06/14 12:26:21;;;;;;;4.22;2.90;;;31.50;39.70;;;;;;5014381;28;20213;-78
2021/06/14 12:28:48;;;;;;;4.05;2.90;;;31.90;38.20;;;;;;5010420;28;20232;-77
2021/06/14 12:31:15;;;;;;;4.03;3.22;;;31.90;38.70;;;;;;5011251;28;20213;-79
2021/06/14 12:33:44;;;;;;;4.00;2.60;;;32.60;41.70;;;;;;5014367;28;20275;-77
2021/06/14 12:36:12;;;;;;;6.30;3.08;;;33.00;43.40;;;;;;4999972;28;20201;-75
2021/06/14 12:38:53;;;;;;;6.88;3.50;;;32.30;37.80;;;;;;5001563;28;20728;-77
2021/06/14 12:41:21;;;;;;;4.20;2.55;;;31.30;31.10;;;;;;5013266;28;20243;-77
2021/06/14 12:43:49;;;;;;;8.10;3.25;;;32.20;32.50;;;;;;5014954;28;22165;-77
2021/06/14 12:46:31;;;;;;;3.65;2.97;;;32.00;27.90;;;;;;4999917;28;20201;-78
2021/06/14 12:48:59;;;;;;;4.20;2.72;;;31.70;30.00;;;;;;5001793;28;20299;-77
2021/06/14 12:51:38;;;;;;;3.22;2.90;;;31.70;29.80;;;;;;5026187;28;20696;-77
2021/06/14 12:54:06;;;;;;;7.25;2.90;;;31.90;33.50;;;;;;5009252;28;20215;-77
2021/06/14 12:56:33;;;;;;;7.57;3.05;;;32.50;33.70;;;;;;5007461;28;20296;-77
2021/06/14 12:59:00;;;;;;;5.00;3.45;;;33.30;69.00;;;;;;5009088;28;20642;-79
2021/06/14 13:01:34;;;;;;;5.38;3.67;;;33.10;36.40;;;;;;4994102;28;20236;-78
2021/06/14 13:04:02;;;;;;;9.85;3.85;;;32.80;41.70;;;;;;5024379;28;20556;-79
2021/06/14 13:06:33;;;;;;;4.55;3.45;;;32.70;36.70;;;;;;5009010;28;20280;-79